Time,TemperatureF,DewpointF,PressureIn,WindDirection,WindDirectionDegrees,WindSpeedMPH,WindSpeedGustMPH,Humidity,HourlyPrecipIn,Conditions,Clouds,dailyrainin,SolarRadiationWatts/m^2,SoftwareType,DateUTC
2013-03-28 00:12:00,48.0,41.0,-100.00,NE,35,2.0,5.0,77,-99.99,,,0.00,0.000000,,2013-03-28 07:12:00,
2013-03-28 01:12:00,46.0,41.0,-100.00,ENE,67,2.0,3.0,82,-99.99,,,0.00,0.000000,,2013-03-28 08:12:00,
2013-03-28 02:12:00,44.0,40.0,-100.00,West,277,1.0,2.0,88,-99.99,,,0.00,0.000000,,2013-03-28 09:12:00,
2013-03-28 03:12:00,42.0,39.0,-100.00,ENE,70,3.0,5.0,89,-99.99,,,0.00,0.000000,,2013-03-28 10:12:00,
2013-03-28 04:12:00,42.0,38.0,-100.00,NE,54,2.0,4.0,86,-99.99,,,0.00,0.000000,,2013-03-28 11:12:00,
2013-03-28 05:12:00,41.0,37.0,-100.00,ENE,75,3.0,5.0,88,-99.99,,,0.00,0.120000,,2013-03-28 12:12:00,
2013-03-28 06:12:00,39.0,37.0,-100.00,East,89,2.0,3.0,91,-99.99,,,0.00,0.120000,,2013-03-28 13:12:00,
2013-03-28 07:12:00,38.0,37.0,-100.00,ENE,67,1.0,3.0,94,-99.99,,,0.00,0.120000,,2013-03-28 14:12:00,
2013-03-28 08:12:00,39.0,37.0,-100.00,East,80,3.0,7.0,93,-99.99,,,0.00,42.770000,,2013-03-28 15:12:00,
2013-03-28 09:12:00,42.0,38.0,-100.00,East,80,6.0,11.0,84,-99.99,,,0.00,208.850006,,2013-03-28 16:12:00,
2013-03-28 10:12:00,44.0,38.0,-100.00,East,83,2.0,7.0,80,-99.99,,,0.00,218.960007,,2013-03-28 17:12:00,
2013-03-28 12:12:00,47.0,39.0,-100.00,South,191,1.0,2.0,73,-99.99,,,0.00,272.070007,,2013-03-28 19:12:00,
2013-03-28 13:12:00,51.0,39.0,-100.00,SE,139,1.0,2.0,63,-99.99,,,0.00,500.209991,,2013-03-28 20:12:00,
2013-03-28 15:12:00,59.0,40.0,-100.00,SSE,150,2.0,3.0,50,-99.99,,,0.00,670.590027,,2013-03-28 22:12:00,
2013-03-28 16:12:00,56.0,41.0,-100.00,East,86,2.0,3.0,55,-99.99,,,0.00,238.020004,,2013-03-28 23:12:00,
2013-03-28 17:12:00,58.0,38.0,-100.00,West,262,2.0,6.0,46,-99.99,,,0.00,248.360001,,2013-03-29 00:12:00,
2013-03-28 18:12:00,61.0,35.0,-100.00,WNW,289,6.0,9.0,37,-99.99,,,0.00,348.079987,,2013-03-29 01:12:00,
2013-03-28 19:12:00,60.0,36.0,-100.00,WNW,294,5.0,10.0,40,-99.99,,,0.00,103.669998,,2013-03-29 02:12:00,
2013-03-28 20:12:00,57.0,37.0,-100.00,NNW,337,1.0,2.0,46,-99.99,,,-99.99,19.990000,,2013-03-29 03:12:00,
2013-03-28 21:12:00,54.0,39.0,-100.00,NE,45,3.0,6.0,57,-99.99,,,0.00,0.000000,,2013-03-29 04:12:00,
2013-03-28 23:12:00,49.0,39.0,-100.00,West,268,1.0,2.0,67,-99.99,,,0.00,0.000000,,2013-03-29 06:12:00,